sensor_id;sensor_type;location;lat;lon;timestamp;P1;durP1;ratioP1;P2;durP2;ratioP2
45618;SDS011;31343;47.520;19.144;2023-04-25T00:02:20;2.70;;;1.52;;
45618;SDS011;31343;47.520;19.144;2023-04-25T00:04:47;2.08;;;1.27;;
45618;SDS011;31343;47.520;19.144;2023-04-25T00:07:14;2.15;;;1.30;;
45618;SDS011;31343;47.520;19.144;2023-04-25T00:09:41;2.38;;;1.65;;
45618;SDS011;31343;47.520;19.144;2023-04-25T00:12:07;2.80;;;1.83;;
45618;SDS011;31343;47.520;19.144;2023-04-25T00:14:34;2.60;;;1.70;;
45618;SDS011;31343;47.520;19.144;2023-04-25T00:17:00;1.92;;;1.15;;
45618;SDS011;31343;47.520;19.144;2023-04-25T00:19:27;3.10;;;1.50;;
45618;SDS011;31343;47.520;19.144;2023-04-25T00:21:56;2.92;;;1.80;;
45618;SDS011;31343;47.520;19.144;2023-04-25T00:24:22;3.20;;;1.50;;
45618;SDS011;31343;47.520;19.144;2023-04-25T00:26:48;2.72;;;1.70;;
45618;SDS011;31343;47.520;19.144;2023-04-25T00:29:13;3.33;;;1.58;;
45618;SDS011;31343;47.520;19.144;2023-04-25T00:31:39;4.57;;;1.50;;
45618;SDS011;31343;47.520;19.144;2023-04-25T00:34:08;3.00;;;1.60;;
45618;SDS011;31343;47.520;19.144;2023-04-25T00:36:34;3.08;;;1.63;;
45618;SDS011;31343;47.520;19.144;2023-04-25T00:39:00;5.38;;;2.05;;
45618;SDS011;31343;47.520;19.144;2023-04-25T00:41:25;2.75;;;1.55;;
45618;SDS011;31343;47.520;19.144;2023-04-25T00:43:51;3.65;;;2.13;;
45618;SDS011;31343;47.520;19.144;2023-04-25T00:46:18;3.03;;;2.05;;
45618;SDS011;31343;47.520;19.144;2023-04-25T00:48:44;2.88;;;2.00;;
45618;SDS011;31343;47.520;19.144;2023-04-25T00:51:12;3.25;;;1.75;;
45618;SDS011;31343;47.520;19.144;2023-04-25T00:53:44;2.72;;;1.83;;
45618;SDS011;31343;47.520;19.144;2023-04-25T00:56:10;3.15;;;2.03;;
45618;SDS011;31343;47.520;19.144;2023-04-25T00:58:36;2.97;;;1.85;;
45618;SDS011;31343;47.520;19.144;2023-04-25T01:01:03;4.18;;;2.25;;
45618;SDS011;31343;47.520;19.144;2023-04-25T01:03:29;2.78;;;1.85;;
45618;SDS011;31343;47.520;19.144;2023-04-25T01:05:58;3.05;;;1.90;;
45618;SDS011;31343;47.520;19.144;2023-04-25T01:08:24;3.17;;;1.85;;
45618;SDS011;31343;47.520;19.144;2023-04-25T01:10:50;3.10;;;1.83;;
45618;SDS011;31343;47.520;19.144;2023-04-25T01:13:16;2.75;;;2.00;;
45618;SDS011;31343;47.520;19.144;2023-04-25T01:15:42;3.28;;;2.10;;
45618;SDS011;31343;47.520;19.144;2023-04-25T01:18:08;3.10;;;2.13;;
45618;SDS011;31343;47.520;19.144;2023-04-25T01:20:35;2.97;;;1.92;;
45618;SDS011;31343;47.520;19.144;2023-04-25T01:23:03;3.60;;;2.15;;
45618;SDS011;31343;47.520;19.144;2023-04-25T01:25:30;3.25;;;2.20;;
45618;SDS011;31343;47.520;19.144;2023-04-25T01:27:56;3.38;;;2.30;;
45618;SDS011;31343;47.520;19.144;2023-04-25T01:30:23;2.90;;;1.80;;
45618;SDS011;31343;47.520;19.144;2023-04-25T01:32:51;3.65;;;2.20;;
45618;SDS011;31343;47.520;19.144;2023-04-25T01:35:19;3.80;;;2.50;;
45618;SDS011;31343;47.520;19.144;2023-04-25T01:37:45;3.55;;;2.17;;
45618;SDS011;31343;47.520;19.144;2023-04-25T01:40:11;3.65;;;2.50;;
45618;SDS011;31343;47.520;19.144;2023-04-25T01:42:38;4.68;;;2.22;;
45618;SDS011;31343;47.520;19.144;2023-04-25T01:45:09;3.17;;;2.35;;
45618;SDS011;31343;47.520;19.144;2023-04-25T01:47:36;4.80;;;2.88;;
45618;SDS011;31343;47.520;19.144;2023-04-25T01:50:06;3.47;;;2.55;;
45618;SDS011;31343;47.520;19.144;2023-04-25T01:52:33;6.43;;;3.42;;
45618;SDS011;31343;47.520;19.144;2023-04-25T01:54:59;3.42;;;2.42;;
45618;SDS011;31343;47.520;19.144;2023-04-25T01:57:28;3.70;;;2.42;;
45618;SDS011;31343;47.520;19.144;2023-04-25T01:59:55;4.05;;;2.70;;
45618;SDS011;31343;47.520;19.144;2023-04-25T02:02:24;2.97;;;2.00;;
45618;SDS011;31343;47.520;19.144;2023-04-25T02:04:51;3.78;;;2.33;;
45618;SDS011;31343;47.520;19.144;2023-04-25T02:07:16;4.32;;;2.70;;
45618;SDS011;31343;47.520;19.144;2023-04-25T02:09:42;6.25;;;2.60;;
45618;SDS011;31343;47.520;19.144;2023-04-25T02:12:09;4.93;;;2.70;;
45618;SDS011;31343;47.520;19.144;2023-04-25T02:14:35;3.58;;;2.42;;
45618;SDS011;31343;47.520;19.144;2023-04-25T02:17:01;3.55;;;2.35;;
45618;SDS011;31343;47.520;19.144;2023-04-25T02:19:27;4.00;;;2.90;;
45618;SDS011;31343;47.520;19.144;2023-04-25T02:21:52;3.88;;;2.35;;
45618;SDS011;31343;47.520;19.144;2023-04-25T02:24:18;4.07;;;2.28;;
45618;SDS011;31343;47.520;19.144;2023-04-25T02:26:44;2.75;;;1.70;;
45618;SDS011;31343;47.520;19.144;2023-04-25T02:29:12;3.75;;;2.30;;
45618;SDS011;31343;47.520;19.144;2023-04-25T02:31:38;3.85;;;2.20;;
45618;SDS011;31343;47.520;19.144;2023-04-25T02:34:03;3.25;;;1.90;;
45618;SDS011;31343;47.520;19.144;2023-04-25T02:36:29;3.83;;;2.08;;
45618;SDS011;31343;47.520;19.144;2023-04-25T02:38:59;2.85;;;2.20;;
45618;SDS011;31343;47.520;19.144;2023-04-25T02:41:25;3.70;;;2.38;;
45618;SDS011;31343;47.520;19.144;2023-04-25T02:43:52;3.17;;;1.88;;
45618;SDS011;31343;47.520;19.144;2023-04-25T02:46:17;5.25;;;2.33;;
45618;SDS011;31343;47.520;19.144;2023-04-25T02:48:43;3.35;;;1.90;;
45618;SDS011;31343;47.520;19.144;2023-04-25T02:51:09;2.60;;;1.88;;
45618;SDS011;31343;47.520;19.144;2023-04-25T02:53:35;2.35;;;1.50;;
45618;SDS011;31343;47.520;19.144;2023-04-25T02:56:01;2.15;;;1.35;;
45618;SDS011;31343;47.520;19.144;2023-04-25T02:58:26;2.47;;;1.25;;
45618;SDS011;31343;47.520;19.144;2023-04-25T03:00:52;2.80;;;1.35;;
45618;SDS011;31343;47.520;19.144;2023-04-25T03:03:18;2.10;;;1.48;;
45618;SDS011;31343;47.520;19.144;2023-04-25T03:05:47;2.33;;;1.40;;
45618;SDS011;31343;47.520;19.144;2023-04-25T03:08:16;3.00;;;1.17;;
45618;SDS011;31343;47.520;19.144;2023-04-25T03:10:42;2.15;;;1.30;;
45618;SDS011;31343;47.520;19.144;2023-04-25T03:13:09;2.72;;;1.30;;
45618;SDS011;31343;47.520;19.144;2023-04-25T03:15:35;2.25;;;1.40;;
45618;SDS011;31343;47.520;19.144;2023-04-25T03:18:01;4.75;;;1.60;;
45618;SDS011;31343;47.520;19.144;2023-04-25T03:20:27;2.85;;;1.60;;
45618;SDS011;31343;47.520;19.144;2023-04-25T03:22:53;2.42;;;1.67;;
45618;SDS011;31343;47.520;19.144;2023-04-25T03:25:19;2.80;;;1.70;;
45618;SDS011;31343;47.520;19.144;2023-04-25T03:27:45;2.97;;;1.88;;
45618;SDS011;31343;47.520;19.144;2023-04-25T03:30:11;4.50;;;2.20;;
45618;SDS011;31343;47.520;19.144;2023-04-25T03:32:36;3.30;;;1.80;;
45618;SDS011;31343;47.520;19.144;2023-04-25T03:35:02;5.03;;;2.38;;
45618;SDS011;31343;47.520;19.144;2023-04-25T03:37:28;2.88;;;1.65;;
45618;SDS011;31343;47.520;19.144;2023-04-25T03:39:54;2.63;;;1.83;;
45618;SDS011;31343;47.520;19.144;2023-04-25T03:42:20;2.63;;;1.60;;
45618;SDS011;31343;47.520;19.144;2023-04-25T03:44:48;3.88;;;2.25;;
45618;SDS011;31343;47.520;19.144;2023-04-25T03:47:14;3.97;;;2.03;;
45618;SDS011;31343;47.520;19.144;2023-04-25T03:49:41;3.75;;;1.80;;
45618;SDS011;31343;47.520;19.144;2023-04-25T03:52:06;2.45;;;1.40;;
45618;SDS011;31343;47.520;19.144;2023-04-25T03:54:33;3.58;;;2.63;;
45618;SDS011;31343;47.520;19.144;2023-04-25T03:56:59;3.22;;;1.90;;
45618;SDS011;31343;47.520;19.144;2023-04-25T03:59:25;4.60;;;1.92;;
45618;SDS011;31343;47.520;19.144;2023-04-25T04:01:51;2.55;;;1.55;;
45618;SDS011;31343;47.520;19.144;2023-04-25T04:04:17;3.40;;;2.08;;
45618;SDS011;31343;47.520;19.144;2023-04-25T04:06:43;4.10;;;2.20;;
45618;SDS011;31343;47.520;19.144;2023-04-25T04:09:09;3.63;;;1.90;;
45618;SDS011;31343;47.520;19.144;2023-04-25T04:11:37;3.08;;;1.88;;
45618;SDS011;31343;47.520;19.144;2023-04-25T04:14:04;3.28;;;1.60;;
45618;SDS011;31343;47.520;19.144;2023-04-25T04:16:31;3.33;;;1.88;;
45618;SDS011;31343;47.520;19.144;2023-04-25T04:18:57;3.92;;;1.90;;
45618;SDS011;31343;47.520;19.144;2023-04-25T04:21:23;3.42;;;1.77;;
45618;SDS011;31343;47.520;19.144;2023-04-25T04:23:49;3.97;;;2.10;;
45618;SDS011;31343;47.520;19.144;2023-04-25T04:26:14;2.90;;;2.10;;
45618;SDS011;31343;47.520;19.144;2023-04-25T04:28:41;3.33;;;1.95;;
45618;SDS011;31343;47.520;19.144;2023-04-25T04:31:09;4.05;;;2.08;;
45618;SDS011;31343;47.520;19.144;2023-04-25T04:33:37;4.25;;;2.17;;
45618;SDS011;31343;47.520;19.144;2023-04-25T04:36:03;3.17;;;1.95;;
45618;SDS011;31343;47.520;19.144;2023-04-25T04:38:29;4.30;;;2.25;;
45618;SDS011;31343;47.520;19.144;2023-04-25T04:40:55;3.92;;;2.60;;
45618;SDS011;31343;47.520;19.144;2023-04-25T04:43:21;3.83;;;2.50;;
45618;SDS011;31343;47.520;19.144;2023-04-25T04:45:48;3.50;;;2.40;;
45618;SDS011;31343;47.520;19.144;2023-04-25T04:48:15;4.30;;;2.38;;
45618;SDS011;31343;47.520;19.144;2023-04-25T04:50:44;8.27;;;2.70;;
45618;SDS011;31343;47.520;19.144;2023-04-25T04:53:12;3.88;;;2.72;;
45618;SDS011;31343;47.520;19.144;2023-04-25T04:55:38;3.22;;;2.10;;
45618;SDS011;31343;47.520;19.144;2023-04-25T04:58:06;3.30;;;2.17;;
45618;SDS011;31343;47.520;19.144;2023-04-25T05:00:32;3.85;;;2.60;;
45618;SDS011;31343;47.520;19.144;2023-04-25T05:02:58;4.43;;;2.20;;
45618;SDS011;31343;47.520;19.144;2023-04-25T05:05:24;3.35;;;2.08;;
45618;SDS011;31343;47.520;19.144;2023-04-25T05:07:50;4.35;;;2.40;;
45618;SDS011;31343;47.520;19.144;2023-04-25T05:10:16;3.35;;;2.30;;
45618;SDS011;31343;47.520;19.144;2023-04-25T05:12:43;5.55;;;2.92;;
45618;SDS011;31343;47.520;19.144;2023-04-25T05:15:09;3.45;;;2.10;;
45618;SDS011;31343;47.520;19.144;2023-04-25T05:17:35;4.00;;;2.72;;
45618;SDS011;31343;47.520;19.144;2023-04-25T05:20:01;3.42;;;2.03;;
45618;SDS011;31343;47.520;19.144;2023-04-25T05:22:28;3.58;;;2.30;;
45618;SDS011;31343;47.520;19.144;2023-04-25T05:24:54;4.25;;;2.45;;
45618;SDS011;31343;47.520;19.144;2023-04-25T05:27:19;3.28;;;2.22;;
45618;SDS011;31343;47.520;19.144;2023-04-25T05:29:45;4.13;;;2.88;;
45618;SDS011;31343;47.520;19.144;2023-04-25T05:32:11;6.40;;;3.28;;
45618;SDS011;31343;47.520;19.144;2023-04-25T05:34:37;4.75;;;2.55;;
45618;SDS011;31343;47.520;19.144;2023-04-25T05:37:03;3.72;;;2.47;;
45618;SDS011;31343;47.520;19.144;2023-04-25T05:39:28;3.28;;;2.08;;
45618;SDS011;31343;47.520;19.144;2023-04-25T05:41:54;4.00;;;2.13;;
45618;SDS011;31343;47.520;19.144;2023-04-25T05:44:20;5.70;;;2.65;;
45618;SDS011;31343;47.520;19.144;2023-04-25T05:46:46;3.30;;;2.17;;
45618;SDS011;31343;47.520;19.144;2023-04-25T05:49:12;4.70;;;2.42;;
45618;SDS011;31343;47.520;19.144;2023-04-25T05:51:38;4.47;;;2.55;;
45618;SDS011;31343;47.520;19.144;2023-04-25T05:54:04;4.20;;;2.15;;
45618;SDS011;31343;47.520;19.144;2023-04-25T05:56:29;5.00;;;2.75;;
45618;SDS011;31343;47.520;19.144;2023-04-25T05:58:55;4.13;;;2.67;;
45618;SDS011;31343;47.520;19.144;2023-04-25T06:01:22;8.43;;;2.70;;
45618;SDS011;31343;47.520;19.144;2023-04-25T06:03:48;4.53;;;2.60;;
45618;SDS011;31343;47.520;19.144;2023-04-25T06:06:14;4.90;;;3.42;;
45618;SDS011;31343;47.520;19.144;2023-04-25T06:08:40;6.93;;;3.22;;
45618;SDS011;31343;47.520;19.144;2023-04-25T06:11:06;4.78;;;3.13;;
45618;SDS011;31343;47.520;19.144;2023-04-25T06:13:32;4.88;;;3.20;;
45618;SDS011;31343;47.520;19.144;2023-04-25T06:15:58;3.88;;;2.70;;
45618;SDS011;31343;47.520;19.144;2023-04-25T06:18:23;5.03;;;2.75;;
45618;SDS011;31343;47.520;19.144;2023-04-25T06:20:49;4.00;;;3.20;;
45618;SDS011;31343;47.520;19.144;2023-04-25T06:23:15;4.70;;;3.17;;
45618;SDS011;31343;47.520;19.144;2023-04-25T06:25:40;5.20;;;2.80;;
45618;SDS011;31343;47.520;19.144;2023-04-25T06:28:06;5.13;;;3.70;;
45618;SDS011;31343;47.520;19.144;2023-04-25T06:30:32;9.40;;;4.30;;
45618;SDS011;31343;47.520;19.144;2023-04-25T06:32:57;4.85;;;3.45;;
45618;SDS011;31343;47.520;19.144;2023-04-25T06:35:23;4.80;;;3.45;;
45618;SDS011;31343;47.520;19.144;2023-04-25T06:37:49;4.38;;;3.13;;
45618;SDS011;31343;47.520;19.144;2023-04-25T06:40:15;4.60;;;3.47;;
45618;SDS011;31343;47.520;19.144;2023-04-25T06:42:42;5.55;;;3.78;;
45618;SDS011;31343;47.520;19.144;2023-04-25T06:45:08;5.15;;;3.78;;
45618;SDS011;31343;47.520;19.144;2023-04-25T06:47:34;5.47;;;3.70;;
45618;SDS011;31343;47.520;19.144;2023-04-25T06:50:00;5.72;;;4.40;;
45618;SDS011;31343;47.520;19.144;2023-04-25T06:52:26;6.38;;;4.53;;
45618;SDS011;31343;47.520;19.144;2023-04-25T06:54:51;5.05;;;3.25;;
45618;SDS011;31343;47.520;19.144;2023-04-25T06:57:17;6.57;;;5.07;;
45618;SDS011;31343;47.520;19.144;2023-04-25T06:59:43;6.78;;;4.50;;
45618;SDS011;31343;47.520;19.144;2023-04-25T07:02:09;5.45;;;3.50;;
45618;SDS011;31343;47.520;19.144;2023-04-25T07:04:36;4.50;;;3.55;;
45618;SDS011;31343;47.520;19.144;2023-04-25T07:07:02;4.75;;;3.55;;
45618;SDS011;31343;47.520;19.144;2023-04-25T07:09:28;4.97;;;3.35;;
45618;SDS011;31343;47.520;19.144;2023-04-25T07:11:54;5.70;;;3.63;;
45618;SDS011;31343;47.520;19.144;2023-04-25T07:14:20;5.18;;;3.65;;
45618;SDS011;31343;47.520;19.144;2023-04-25T07:16:45;4.72;;;3.03;;
45618;SDS011;31343;47.520;19.144;2023-04-25T07:19:11;5.47;;;3.33;;
45618;SDS011;31343;47.520;19.144;2023-04-25T07:21:37;4.50;;;3.55;;
45618;SDS011;31343;47.520;19.144;2023-04-25T07:24:03;4.53;;;3.38;;
45618;SDS011;31343;47.520;19.144;2023-04-25T07:26:29;5.45;;;3.38;;
45618;SDS011;31343;47.520;19.144;2023-04-25T07:28:55;4.28;;;3.17;;
45618;SDS011;31343;47.520;19.144;2023-04-25T07:31:21;5.85;;;4.07;;
45618;SDS011;31343;47.520;19.144;2023-04-25T07:33:47;5.10;;;3.35;;
45618;SDS011;31343;47.520;19.144;2023-04-25T07:36:13;5.80;;;3.65;;
45618;SDS011;31343;47.520;19.144;2023-04-25T07:38:40;4.60;;;3.28;;
45618;SDS011;31343;47.520;19.144;2023-04-25T07:41:06;4.90;;;3.28;;
45618;SDS011;31343;47.520;19.144;2023-04-25T07:43:32;4.38;;;3.35;;
45618;SDS011;31343;47.520;19.144;2023-04-25T07:45:58;6.28;;;3.38;;
45618;SDS011;31343;47.520;19.144;2023-04-25T07:48:24;4.40;;;3.00;;
45618;SDS011;31343;47.520;19.144;2023-04-25T07:50:49;4.03;;;3.00;;
45618;SDS011;31343;47.520;19.144;2023-04-25T07:53:16;3.33;;;2.83;;
45618;SDS011;31343;47.520;19.144;2023-04-25T07:55:43;5.07;;;3.22;;
45618;SDS011;31343;47.520;19.144;2023-04-25T07:58:08;5.30;;;3.17;;
45618;SDS011;31343;47.520;19.144;2023-04-25T08:00:35;5.15;;;3.67;;
45618;SDS011;31343;47.520;19.144;2023-04-25T08:03:01;4.43;;;3.30;;
45618;SDS011;31343;47.520;19.144;2023-04-25T08:05:27;5.22;;;3.70;;
45618;SDS011;31343;47.520;19.144;2023-04-25T08:07:53;5.35;;;3.03;;
45618;SDS011;31343;47.520;19.144;2023-04-25T08:10:20;4.63;;;3.35;;
45618;SDS011;31343;47.520;19.144;2023-04-25T08:12:48;4.03;;;2.60;;
45618;SDS011;31343;47.520;19.144;2023-04-25T08:15:13;4.88;;;3.00;;
45618;SDS011;31343;47.520;19.144;2023-04-25T08:17:40;3.95;;;2.97;;
45618;SDS011;31343;47.520;19.144;2023-04-25T08:20:06;3.80;;;2.40;;
45618;SDS011;31343;47.520;19.144;2023-04-25T08:22:32;4.05;;;2.55;;
45618;SDS011;31343;47.520;19.144;2023-04-25T08:24:59;4.97;;;2.55;;
45618;SDS011;31343;47.520;19.144;2023-04-25T08:27:24;3.30;;;2.15;;
45618;SDS011;31343;47.520;19.144;2023-04-25T08:29:50;4.50;;;2.33;;
45618;SDS011;31343;47.520;19.144;2023-04-25T08:32:16;3.38;;;2.30;;
45618;SDS011;31343;47.520;19.144;2023-04-25T08:34:43;3.63;;;2.20;;
45618;SDS011;31343;47.520;19.144;2023-04-25T08:37:09;2.47;;;1.90;;
45618;SDS011;31343;47.520;19.144;2023-04-25T08:39:36;2.58;;;1.67;;
45618;SDS011;31343;47.520;19.144;2023-04-25T08:42:05;3.80;;;1.88;;
45618;SDS011;31343;47.520;19.144;2023-04-25T08:44:35;3.03;;;1.60;;
45618;SDS011;31343;47.520;19.144;2023-04-25T08:47:04;3.85;;;1.60;;
45618;SDS011;31343;47.520;19.144;2023-04-25T08:49:33;2.38;;;1.30;;
45618;SDS011;31343;47.520;19.144;2023-04-25T08:52:00;3.45;;;2.20;;
45618;SDS011;31343;47.520;19.144;2023-04-25T08:54:28;2.50;;;1.60;;
45618;SDS011;31343;47.520;19.144;2023-04-25T08:56:57;2.25;;;1.42;;
45618;SDS011;31343;47.520;19.144;2023-04-25T08:59:26;2.45;;;1.50;;
45618;SDS011;31343;47.520;19.144;2023-04-25T09:01:53;2.75;;;1.60;;
45618;SDS011;31343;47.520;19.144;2023-04-25T09:04:20;3.30;;;1.73;;
45618;SDS011;31343;47.520;19.144;2023-04-25T09:06:47;3.25;;;1.60;;
45618;SDS011;31343;47.520;19.144;2023-04-25T09:09:13;2.60;;;1.70;;
45618;SDS011;31343;47.520;19.144;2023-04-25T09:11:39;2.40;;;1.40;;
45618;SDS011;31343;47.520;19.144;2023-04-25T09:14:15;3.55;;;1.83;;
45618;SDS011;31343;47.520;19.144;2023-04-25T09:19:31;3.50;;;1.58;;
45618;SDS011;31343;47.520;19.144;2023-04-25T09:22:01;3.80;;;1.98;;
45618;SDS011;31343;47.520;19.144;2023-04-25T09:27:07;2.88;;;1.63;;
45618;SDS011;31343;47.520;19.144;2023-04-25T09:29:38;3.13;;;1.90;;
45618;SDS011;31343;47.520;19.144;2023-04-25T09:34:41;2.47;;;1.70;;
45618;SDS011;31343;47.520;19.144;2023-04-25T09:37:09;3.67;;;2.15;;
45618;SDS011;31343;47.520;19.144;2023-04-25T09:39:36;2.40;;;1.30;;
45618;SDS011;31343;47.520;19.144;2023-04-25T09:42:03;3.05;;;1.45;;
45618;SDS011;31343;47.520;19.144;2023-04-25T09:44:29;2.97;;;2.20;;
45618;SDS011;31343;47.520;19.144;2023-04-25T09:46:55;2.75;;;1.50;;
45618;SDS011;31343;47.520;19.144;2023-04-25T09:49:20;2.63;;;1.40;;
45618;SDS011;31343;47.520;19.144;2023-04-25T09:51:59;2.80;;;1.60;;
45618;SDS011;31343;47.520;19.144;2023-04-25T09:54:25;1.98;;;1.23;;
45618;SDS011;31343;47.520;19.144;2023-04-25T09:56:51;2.40;;;1.55;;
45618;SDS011;31343;47.520;19.144;2023-04-25T09:59:22;2.15;;;1.08;;
45618;SDS011;31343;47.520;19.144;2023-04-25T10:01:48;2.05;;;1.10;;
45618;SDS011;31343;47.520;19.144;2023-04-25T10:04:16;2.20;;;1.00;;
45618;SDS011;31343;47.520;19.144;2023-04-25T10:06:49;2.35;;;1.60;;
45618;SDS011;31343;47.520;19.144;2023-04-25T10:09:18;2.05;;;1.10;;
45618;SDS011;31343;47.520;19.144;2023-04-25T10:11:46;1.50;;;0.85;;
45618;SDS011;31343;47.520;19.144;2023-04-25T10:14:15;2.15;;;1.10;;
45618;SDS011;31343;47.520;19.144;2023-04-25T10:16:41;2.28;;;1.20;;
45618;SDS011;31343;47.520;19.144;2023-04-25T10:19:09;1.60;;;1.00;;
45618;SDS011;31343;47.520;19.144;2023-04-25T10:21:35;2.15;;;1.10;;
45618;SDS011;31343;47.520;19.144;2023-04-25T10:24:09;1.98;;;1.10;;
45618;SDS011;31343;47.520;19.144;2023-04-25T10:26:35;2.13;;;1.10;;
45618;SDS011;31343;47.520;19.144;2023-04-25T10:29:02;2.22;;;1.00;;
45618;SDS011;31343;47.520;19.144;2023-04-25T10:31:31;1.67;;;1.10;;
45618;SDS011;31343;47.520;19.144;2023-04-25T10:33:59;1.30;;;0.88;;
45618;SDS011;31343;47.520;19.144;2023-04-25T10:36:26;2.03;;;0.70;;
45618;SDS011;31343;47.520;19.144;2023-04-25T10:38:58;1.92;;;0.90;;
45618;SDS011;31343;47.520;19.144;2023-04-25T10:41:31;1.25;;;0.82;;
45618;SDS011;31343;47.520;19.144;2023-04-25T10:44:12;1.65;;;0.80;;
45618;SDS011;31343;47.520;19.144;2023-04-25T10:46:39;2.13;;;0.70;;
45618;SDS011;31343;47.520;19.144;2023-04-25T10:49:05;0.95;;;0.68;;
45618;SDS011;31343;47.520;19.144;2023-04-25T10:51:34;2.25;;;0.93;;
45618;SDS011;31343;47.520;19.144;2023-04-25T10:54:05;1.20;;;0.70;;
45618;SDS011;31343;47.520;19.144;2023-04-25T11:01:38;2.50;;;0.80;;
45618;SDS011;31343;47.520;19.144;2023-04-25T11:04:06;1.10;;;0.80;;
45618;SDS011;31343;47.520;19.144;2023-04-25T11:09:45;1.90;;;0.70;;
45618;SDS011;31343;47.520;19.144;2023-04-25T11:12:11;1.67;;;0.90;;
45618;SDS011;31343;47.520;19.144;2023-04-25T11:14:38;1.00;;;0.60;;
45618;SDS011;31343;47.520;19.144;2023-04-25T11:17:04;0.93;;;0.63;;
45618;SDS011;31343;47.520;19.144;2023-04-25T11:19:30;1.30;;;0.73;;
45618;SDS011;31343;47.520;19.144;2023-04-25T11:22:00;0.73;;;0.60;;
45618;SDS011;31343;47.520;19.144;2023-04-25T11:24:30;1.58;;;0.70;;
45618;SDS011;31343;47.520;19.144;2023-04-25T11:27:00;1.73;;;0.70;;
45618;SDS011;31343;47.520;19.144;2023-04-25T11:29:30;0.63;;;0.45;;
45618;SDS011;31343;47.520;19.144;2023-04-25T11:31:57;1.10;;;0.63;;
45618;SDS011;31343;47.520;19.144;2023-04-25T11:34:24;1.13;;;0.65;;
45618;SDS011;31343;47.520;19.144;2023-04-25T11:36:52;0.63;;;0.50;;
45618;SDS011;31343;47.520;19.144;2023-04-25T11:39:21;1.70;;;0.50;;
45618;SDS011;31343;47.520;19.144;2023-04-25T11:41:48;1.92;;;0.60;;
45618;SDS011;31343;47.520;19.144;2023-04-25T11:44:18;0.68;;;0.40;;
45618;SDS011;31343;47.520;19.144;2023-04-25T11:46:45;1.48;;;0.40;;
45618;SDS011;31343;47.520;19.144;2023-04-25T11:49:12;0.73;;;0.52;;
45618;SDS011;31343;47.520;19.144;2023-04-25T11:51:42;0.80;;;0.40;;
45618;SDS011;31343;47.520;19.144;2023-04-25T11:54:09;0.63;;;0.45;;
45618;SDS011;31343;47.520;19.144;2023-04-25T11:56:35;0.90;;;0.50;;
45618;SDS011;31343;47.520;19.144;2023-04-25T11:59:02;0.95;;;0.63;;
45618;SDS011;31343;47.520;19.144;2023-04-25T12:01:30;0.50;;;0.50;;
45618;SDS011;31343;47.520;19.144;2023-04-25T12:04:15;0.40;;;0.38;;
45618;SDS011;31343;47.520;19.144;2023-04-25T12:06:49;0.68;;;0.50;;
45618;SDS011;31343;47.520;19.144;2023-04-25T12:09:17;0.68;;;0.43;;
45618;SDS011;31343;47.520;19.144;2023-04-25T12:11:52;0.80;;;0.47;;
45618;SDS011;31343;47.520;19.144;2023-04-25T12:14:23;0.80;;;0.60;;
45618;SDS011;31343;47.520;19.144;2023-04-25T12:19:23;0.88;;;0.50;;
45618;SDS011;31343;47.520;19.144;2023-04-25T12:21:50;1.48;;;0.50;;
45618;SDS011;31343;47.520;19.144;2023-04-25T12:24:18;1.17;;;0.60;;
45618;SDS011;31343;47.520;19.144;2023-04-25T12:26:58;1.33;;;0.60;;
45618;SDS011;31343;47.520;19.144;2023-04-25T12:29:25;1.88;;;0.70;;
45618;SDS011;31343;47.520;19.144;2023-04-25T12:31:53;1.27;;;0.60;;
45618;SDS011;31343;47.520;19.144;2023-04-25T12:34:20;0.98;;;0.50;;
45618;SDS011;31343;47.520;19.144;2023-04-25T12:36:46;1.55;;;0.60;;
45618;SDS011;31343;47.520;19.144;2023-04-25T12:41:42;1.05;;;0.70;;
45618;SDS011;31343;47.520;19.144;2023-04-25T12:44:08;1.23;;;0.70;;
45618;SDS011;31343;47.520;19.144;2023-04-25T12:46:34;1.35;;;0.63;;
45618;SDS011;31343;47.520;19.144;2023-04-25T12:49:00;1.23;;;0.77;;
45618;SDS011;31343;47.520;19.144;2023-04-25T12:51:28;1.60;;;0.85;;
45618;SDS011;31343;47.520;19.144;2023-04-25T12:53:54;1.05;;;0.65;;
45618;SDS011;31343;47.520;19.144;2023-04-25T12:56:20;0.90;;;0.60;;
45618;SDS011;31343;47.520;19.144;2023-04-25T12:58:46;1.40;;;0.70;;
45618;SDS011;31343;47.520;19.144;2023-04-25T13:01:13;1.00;;;0.60;;
45618;SDS011;31343;47.520;19.144;2023-04-25T13:03:39;2.17;;;0.60;;
45618;SDS011;31343;47.520;19.144;2023-04-25T13:06:06;1.63;;;0.70;;
45618;SDS011;31343;47.520;19.144;2023-04-25T13:08:32;1.30;;;0.55;;
45618;SDS011;31343;47.520;19.144;2023-04-25T13:10:58;1.85;;;0.68;;
45618;SDS011;31343;47.520;19.144;2023-04-25T13:13:23;1.38;;;0.70;;
45618;SDS011;31343;47.520;19.144;2023-04-25T13:15:49;1.50;;;0.70;;
45618;SDS011;31343;47.520;19.144;2023-04-25T13:18:15;1.33;;;0.80;;
45618;SDS011;31343;47.520;19.144;2023-04-25T13:20:41;2.00;;;0.80;;
45618;SDS011;31343;47.520;19.144;2023-04-25T13:23:06;1.60;;;0.73;;
45618;SDS011;31343;47.520;19.144;2023-04-25T13:25:32;1.83;;;0.93;;
45618;SDS011;31343;47.520;19.144;2023-04-25T13:27:58;1.83;;;0.98;;
45618;SDS011;31343;47.520;19.144;2023-04-25T13:30:23;1.42;;;0.70;;
45618;SDS011;31343;47.520;19.144;2023-04-25T13:32:49;1.23;;;0.80;;
45618;SDS011;31343;47.520;19.144;2023-04-25T13:35:16;1.60;;;0.90;;
45618;SDS011;31343;47.520;19.144;2023-04-25T13:37:42;1.42;;;0.80;;
45618;SDS011;31343;47.520;19.144;2023-04-25T13:40:09;2.00;;;0.90;;
45618;SDS011;31343;47.520;19.144;2023-04-25T13:42:36;1.98;;;0.80;;
45618;SDS011;31343;47.520;19.144;2023-04-25T13:45:03;1.17;;;0.80;;
45618;SDS011;31343;47.520;19.144;2023-04-25T13:47:29;2.05;;;1.00;;
45618;SDS011;31343;47.520;19.144;2023-04-25T13:49:55;2.00;;;1.10;;
45618;SDS011;31343;47.520;19.144;2023-04-25T13:52:22;1.70;;;0.90;;
45618;SDS011;31343;47.520;19.144;2023-04-25T13:54:50;1.90;;;1.00;;
45618;SDS011;31343;47.520;19.144;2023-04-25T13:57:16;1.70;;;0.70;;
45618;SDS011;31343;47.520;19.144;2023-04-25T13:59:42;1.70;;;0.93;;
45618;SDS011;31343;47.520;19.144;2023-04-25T14:02:08;2.30;;;0.90;;
45618;SDS011;31343;47.520;19.144;2023-04-25T14:04:34;2.05;;;1.20;;
45618;SDS011;31343;47.520;19.144;2023-04-25T14:07:00;1.70;;;0.85;;
45618;SDS011;31343;47.520;19.144;2023-04-25T14:09:27;1.55;;;0.90;;
45618;SDS011;31343;47.520;19.144;2023-04-25T14:11:53;1.73;;;1.00;;
45618;SDS011;31343;47.520;19.144;2023-04-25T14:14:19;2.60;;;0.90;;
45618;SDS011;31343;47.520;19.144;2023-04-25T14:16:46;2.05;;;0.88;;
45618;SDS011;31343;47.520;19.144;2023-04-25T14:19:15;1.23;;;0.90;;
45618;SDS011;31343;47.520;19.144;2023-04-25T14:21:41;1.45;;;0.88;;
45618;SDS011;31343;47.520;19.144;2023-04-25T14:24:10;1.77;;;0.98;;
45618;SDS011;31343;47.520;19.144;2023-04-25T14:26:36;1.27;;;0.93;;
45618;SDS011;31343;47.520;19.144;2023-04-25T14:29:03;1.67;;;1.10;;
45618;SDS011;31343;47.520;19.144;2023-04-25T14:31:30;1.65;;;0.90;;
45618;SDS011;31343;47.520;19.144;2023-04-25T14:33:56;1.85;;;1.13;;
45618;SDS011;31343;47.520;19.144;2023-04-25T14:36:21;2.90;;;1.05;;
45618;SDS011;31343;47.520;19.144;2023-04-25T14:38:47;1.63;;;0.80;;
45618;SDS011;31343;47.520;19.144;2023-04-25T14:41:13;3.05;;;1.17;;
45618;SDS011;31343;47.520;19.144;2023-04-25T14:43:39;1.85;;;1.20;;
45618;SDS011;31343;47.520;19.144;2023-04-25T14:46:08;1.38;;;0.90;;
45618;SDS011;31343;47.520;19.144;2023-04-25T14:48:35;1.63;;;1.00;;
45618;SDS011;31343;47.520;19.144;2023-04-25T14:51:01;2.72;;;0.90;;
45618;SDS011;31343;47.520;19.144;2023-04-25T14:53:27;2.22;;;0.93;;